Castle Airport
KMER : now visible

Airfield :











YOU CAN JOIN US ON...

 
LOGIN :

Register | Disclaimer

   EN    FR    IT 

 









Legend :    VFR   Marginal VFR   IFR   Intensive IFR   Very Intensive IFR
Visi :
Ceiling :
>= 8 km
>= 3000ft
5 to 8 km
1000 to 3000 ft
1500m to 5 km
500 to 1000 ft
800 to 1500m
200 to 500 ft
< 800m
< 200 ft
Symbols :   Thunderstorms  Fog  Heavy snow  Heavy precipitations  Wind > 20 kt






- Airport Elevation : 191 ft


KMER - Castle

CURRENT METAR :
  • 050635Z AUTO 00000KT 3/4SM OVC002 09/09 A3028 RMK AO1

EXPIRED METARs :
  • 050615Z AUTO 00000KT 3/4SM OVC002 09/09 A3028 RMK AO1
  • 050555Z AUTO 35004KT 1 3/4SM OVC002 09/09 A3028 RMK AO1
  • 050535Z AUTO 36004KT 1 1/4SM OVC002 09/09 A3027 RMK AO1
  • 050515Z AUTO 35003KT 1/2SM OVC002 09/09 A3027 RMK AO1
  • 050455Z AUTO 1 1/2SM OVC002 09/09 A3027 RMK AO1
  • 050435Z AUTO 36004KT 3/4SM OVC002 09/09 A3027 RMK AO1
  • 050415Z AUTO 02003KT 1SM OVC002 09/09 A3026 RMK AO1
  • 050355Z AUTO 00000KT 1 1/2SM OVC002 09/09 A3026 RMK AO1

TAF KMER
Valid from the 05 at 06:00 until the 06 at 06:00 UTC


050520Z 0506/0606 00000KT 1SM BR OVC002
TEMPO 0508/0512 1/2SM FG VV002
FM051200 VRB03KT 1/4SM FG VV002
FM051900 08004KT 2SM BR OVC004
FM052200 17003KT 4SM HZ SCT005 AMD NOT SKED
KZOA FIR / North America



MET'MAP, your aeronautical weather chart ! - Copyright ORBIFLY December 2007 - Disclaimer

ORBIFLY MET'MAP TEAM :

Programming & Development : Alexandra Zaïnal
Concept & original design : Baudouin d'Aumeries
Assistance for programming : Marc-Olivier Méhu
Technical & hardware support : Manuel Goepfert

Contact : metmap@orbifly.com




SOURCES & CREDITS :

   NOAA       Earth
Advisory